Terminal Aerodrome Forecast
Issued by NWS Quad Cities IA IL

Home | Current Version | Previous Version | Text Only | Print | Product List | Glossary On
Versions: 1 2 3 4 5 6 7 8 9 10 11 12 13 14 15 16 17 18 19 20 21 22
468
FTUS43 KDVN 012323
TAFDBQ
TAF
KDBQ 012323Z 0200/0224 03006KT 5SM -RA BR SCT025 OVC035
      TEMPO 0200/0202 4SM RA BR BKN015 OVC025
     FM020200 02007KT 6SM BR OVC014
     FM020900 03006KT P6SM BKN050
     FM021700 02008KT P6SM BKN050=

USA.gov is the U.S. government's official web portal to all federal, state and local government web resources and services.